Time;durP1;ratioP1;P1;durP2;ratioP2;P2;SDS_P1;SDS_P2;PMS_P1;PMS_P2;Temp;Humidity;BMP_temperature;BMP_pressure;BME280_temperature;BME280_humidity;BME280_pressure;Samples;Min_cycle;Max_cycle;Signal;HPM_P1;HPM_P2
2022/07/01 00:01:46;;;;;;;1.60;0.65;;;16.40;99.90;;;;;;5068968;28;20408;-46
2022/07/01 00:04:12;;;;;;;3.38;0.50;;;16.40;99.90;;;;;;5069781;28;20048;-47
2022/07/01 00:06:38;;;;;;;1.67;0.52;;;16.40;99.90;;;;;;5072503;28;20047;-48
2022/07/01 00:09:04;;;;;;;0.73;0.20;;;16.40;99.90;;;;;;5071700;28;20033;-50
2022/07/01 00:11:31;;;;;;;1.55;0.50;;;16.40;99.90;;;;;;5071056;28;20043;-48
2022/07/01 00:13:56;;;;;;;3.97;0.50;;;16.40;99.90;;;;;;5072203;28;20072;-47
2022/07/01 00:16:22;;;;;;;3.17;0.70;;;16.40;99.90;;;;;;5066411;28;20064;-50
2022/07/01 00:18:48;;;;;;;0.75;0.40;;;16.40;99.90;;;;;;5054103;28;20048;-49
2022/07/01 00:21:14;;;;;;;1.83;0.63;;;16.40;99.90;;;;;;5052453;28;20043;-46
2022/07/01 00:23:40;;;;;;;4.00;0.60;;;16.30;99.90;;;;;;5084073;28;20040;-50
2022/07/01 00:26:05;;;;;;;;;;;16.30;99.90;;;;;;5054062;28;20106;-49
2022/07/01 00:28:31;;;;;;;3.05;0.65;;;16.30;99.90;;;;;;5058759;28;19978;-47
2022/07/01 00:30:57;;;;;;;3.45;0.60;;;16.30;99.90;;;;;;5062805;28;20032;-48
2022/07/01 00:33:22;;;;;;;2.88;0.45;;;16.30;99.90;;;;;;5063237;28;20049;-46
2022/07/01 00:35:48;;;;;;;1.48;0.30;;;16.30;99.90;;;;;;5063853;28;20051;-47
2022/07/01 00:38:13;;;;;;;0.40;0.22;;;16.30;99.90;;;;;;5072362;28;20037;-47
2022/07/01 00:40:39;;;;;;;1.70;0.25;;;16.30;99.90;;;;;;5070361;28;20047;-49
2022/07/01 00:43:04;;;;;;;4.05;0.30;;;16.30;99.90;;;;;;5063232;28;20665;-47
2022/07/01 00:45:30;;;;;;;4.78;0.60;;;16.20;99.90;;;;;;5051864;28;20510;-47
2022/07/01 00:47:56;;;;;;;4.75;0.30;;;16.20;99.90;;;;;;5052296;28;20033;-47
2022/07/01 00:50:23;;;;;;;;;;;16.20;99.90;;;;;;5053621;28;20509;-47
2022/07/01 00:52:48;;;;;;;2.58;0.65;;;16.20;99.90;;;;;;5051442;28;20390;-52
2022/07/01 00:55:15;;;;;;;1.55;1.45;;;16.10;99.90;;;;;;5052310;28;20073;-49
2022/07/01 00:57:43;;;;;;;3.75;3.47;;;16.20;99.90;;;;;;5070530;28;20051;-46
2022/07/01 01:00:24;;;;;;;5.00;3.22;;;16.20;99.90;;;;;;5069750;28;20052;-50
2022/07/01 01:02:50;;;;;;;3.92;3.63;;;16.10;99.90;;;;;;5061213;28;20449;-46
2022/07/01 01:05:17;;;;;;;3.72;3.42;;;16.10;99.90;;;;;;5052342;28;20041;-46
2022/07/01 01:07:43;;;;;;;3.25;2.70;;;16.10;99.90;;;;;;5051476;28;20044;-52
2022/07/01 01:10:09;;;;;;;3.10;2.90;;;16.10;99.90;;;;;;5052048;28;20083;-50
2022/07/01 01:12:35;;;;;;;3.97;3.45;;;16.10;99.90;;;;;;5069484;28;20044;-49
2022/07/01 01:15:02;;;;;;;5.00;4.55;;;16.20;99.90;;;;;;5069979;28;20040;-48
2022/07/01 01:17:28;;;;;;;7.70;6.85;;;16.20;99.90;;;;;;5062730;28;20071;-47
2022/07/01 01:19:53;;;;;;;7.45;6.85;;;16.10;99.90;;;;;;5051922;28;20126;-49
2022/07/01 01:22:19;;;;;;;9.48;8.55;;;16.10;99.90;;;;;;5067416;28;20345;-50
2022/07/01 01:24:47;;;;;;;10.55;9.55;;;16.10;99.90;;;;;;5071087;28;20090;-50
2022/07/01 01:27:13;;;;;;;10.98;9.95;;;16.10;99.90;;;;;;5070544;28;20413;-47
2022/07/01 01:29:39;;;;;;;12.15;11.05;;;16.10;99.90;;;;;;5071950;28;20276;-46
2022/07/01 01:32:07;;;;;;;12.38;11.30;;;16.10;99.90;;;;;;5067673;28;20033;-46
2022/07/01 01:34:37;;;;;;;11.60;10.43;;;16.20;99.90;;;;;;5063120;28;20032;-47
2022/07/01 01:37:04;;;;;;;11.40;10.38;;;16.20;99.90;;;;;;5069608;28;20117;-46
2022/07/01 01:39:30;;;;;;;14.65;13.07;;;16.20;99.90;;;;;;5071159;28;20051;-49
2022/07/01 01:41:55;;;;;;;15.75;14.13;;;16.20;99.90;;;;;;5070871;28;20040;-53
2022/07/01 01:44:21;;;;;;;18.25;16.35;;;16.20;99.90;;;;;;5069290;28;20509;-46
2022/07/01 01:46:47;;;;;;;19.83;17.60;;;16.30;99.90;;;;;;5066753;28;20032;-47
2022/07/01 01:49:13;;;;;;;19.48;16.35;;;16.30;99.90;;;;;;5050387;28;20436;-50
2022/07/01 01:51:38;;;;;;;19.27;17.25;;;16.30;99.90;;;;;;5051246;28;20067;-52
2022/07/01 01:54:04;;;;;;;19.27;17.23;;;16.20;99.90;;;;;;5051517;28;20037;-48
2022/07/01 01:56:30;;;;;;;18.30;16.55;;;16.30;99.90;;;;;;5060064;28;20120;-46
2022/07/01 01:58:56;;;;;;;;;;;16.20;99.90;;;;;;5071270;28;20032;-50
2022/07/01 02:01:22;;;;;;;19.30;16.70;;;16.20;99.90;;;;;;5070212;28;19946;-47
2022/07/01 02:03:50;;;;;;;17.88;16.00;;;16.20;99.90;;;;;;5070430;28;20044;-47
2022/07/01 02:06:17;;;;;;;17.08;15.30;;;16.10;99.90;;;;;;5068392;28;20434;-49
2022/07/01 02:08:43;;;;;;;16.00;14.40;;;16.10;99.90;;;;;;5070549;28;20036;-49
2022/07/01 02:11:09;;;;;;;15.75;14.23;;;16.10;99.90;;;;;;5068298;28;20055;-46
2022/07/01 02:13:34;;;;;;;;;;;16.00;99.90;;;;;;5070625;28;20125;-46
2022/07/01 02:16:00;;;;;;;15.13;13.52;;;16.00;99.90;;;;;;5067709;28;20003;-52
2022/07/01 02:18:26;;;;;;;13.98;12.63;;;16.00;99.90;;;;;;5054512;28;20055;-47
2022/07/01 02:20:52;;;;;;;12.40;11.18;;;16.00;99.90;;;;;;5050528;28;20044;-50
2022/07/01 02:23:18;;;;;;;12.05;9.95;;;16.00;99.90;;;;;;5049349;28;20036;-51
2022/07/01 02:25:44;;;;;;;11.73;10.38;;;16.00;99.90;;;;;;5052508;28;20430;-47
2022/07/01 02:28:10;;;;;;;12.35;10.70;;;15.90;99.90;;;;;;5068685;28;20167;-49
2022/07/01 02:30:36;;;;;;;13.10;11.65;;;15.90;99.90;;;;;;5070435;28;20037;-50
2022/07/01 02:33:05;;;;;;;11.23;10.13;;;15.80;99.90;;;;;;5067602;28;20036;-49
2022/07/01 02:35:32;;;;;;;16.30;11.77;;;15.80;99.90;;;;;;5070713;28;20047;-46
2022/07/01 02:37:58;;;;;;;12.32;11.15;;;15.80;99.90;;;;;;5054804;28;20040;-50
2022/07/01 02:40:24;;;;;;;12.10;10.90;;;15.80;99.90;;;;;;5050389;28;20041;-48
2022/07/01 02:42:50;;;;;;;;;;;15.80;99.90;;;;;;5049653;28;20035;-47
2022/07/01 02:45:15;;;;;;;11.07;10.02;;;15.80;99.90;;;;;;5050601;28;19999;-46
2022/07/01 02:47:41;;;;;;;11.00;10.00;;;15.80;99.90;;;;;;5049648;28;20418;-48
2022/07/01 02:50:10;;;;;;;12.27;9.60;;;15.80;99.90;;;;;;5051447;28;20125;-49
2022/07/01 02:52:37;;;;;;;11.02;9.95;;;15.70;99.90;;;;;;5049146;28;20258;-47
2022/07/01 02:55:05;;;;;;;12.43;10.63;;;15.70;99.90;;;;;;5049426;28;20048;-49
2022/07/01 02:57:31;;;;;;;12.52;9.73;;;15.70;99.90;;;;;;5066483;28;20055;-47
2022/07/01 02:59:57;;;;;;;10.57;9.48;;;15.70;99.90;;;;;;5065927;28;20115;-47
2022/07/01 03:02:23;;;;;;;10.52;9.45;;;15.70;99.90;;;;;;5068737;28;20098;-50
2022/07/01 03:04:50;;;;;;;10.45;9.45;;;15.60;99.90;;;;;;5069095;28;20090;-47
2022/07/01 03:07:16;;;;;;;10.45;9.45;;;15.60;99.90;;;;;;5069111;28;20055;-49
2022/07/01 03:09:43;;;;;;;14.95;9.48;;;15.60;99.90;;;;;;5066921;28;20049;-47
2022/07/01 03:12:24;;;;;;;12.02;10.18;;;15.50;99.90;;;;;;5067963;28;20048;-46
2022/07/01 03:14:58;;;;;;;12.38;9.27;;;15.50;99.90;;;;;;5069383;28;20032;-48
2022/07/01 03:17:24;;;;;;;12.68;10.85;;;15.50;99.90;;;;;;5067770;28;20065;-47
2022/07/01 03:19:51;;;;;;;;;;;15.50;99.90;;;;;;5069396;28;20244;-46
2022/07/01 03:22:17;;;;;;;12.47;11.23;;;15.50;99.90;;;;;;5067366;28;19916;-47
2022/07/01 03:24:43;;;;;;;;;;;15.50;99.90;;;;;;5069644;28;20040;-50
2022/07/01 03:27:09;;;;;;;15.52;12.80;;;15.50;99.90;;;;;;5054904;28;19978;-50
2022/07/01 03:29:35;;;;;;;18.23;15.30;;;15.50;99.90;;;;;;5049436;28;20407;-47
2022/07/01 03:32:00;;;;;;;17.45;15.38;;;15.50;99.90;;;;;;5050337;28;20041;-50
2022/07/01 03:34:26;;;;;;;20.52;16.58;;;15.50;99.90;;;;;;5049510;28;20529;-46
2022/07/01 03:36:52;;;;;;;20.48;16.35;;;15.50;99.90;;;;;;5049131;28;20044;-48
2022/07/01 03:39:17;;;;;;;18.50;16.50;;;15.50;99.90;;;;;;5049750;28;20036;-51
2022/07/01 03:41:44;;;;;;;21.23;17.95;;;15.50;99.90;;;;;;5049612;28;20036;-46
2022/07/01 03:44:09;;;;;;;22.48;18.75;;;15.40;99.90;;;;;;5067423;28;20369;-47
2022/07/01 03:46:35;;;;;;;21.67;18.45;;;15.50;99.90;;;;;;5068979;28;20115;-46
2022/07/01 03:49:02;;;;;;;21.13;18.52;;;15.50;99.90;;;;;;5054318;28;20477;-47
2022/07/01 03:51:28;;;;;;;21.08;18.83;;;15.40;99.90;;;;;;5048169;28;20099;-46
2022/07/01 03:56:38;;;;;;;24.83;18.92;;;15.40;99.90;;;;;;5058755;28;20116;-51
2022/07/01 03:59:03;;;;;;;21.45;18.67;;;15.50;99.90;;;;;;5069652;28;20450;-47
2022/07/01 04:01:29;;;;;;;25.15;19.13;;;15.40;99.90;;;;;;5068139;28;20442;-46
2022/07/01 04:03:55;;;;;;;29.77;21.33;;;15.40;99.90;;;;;;5068986;28;20032;-46
2022/07/01 04:06:21;;;;;;;26.42;21.40;;;15.30;99.90;;;;;;5086267;28;20051;-50
2022/07/01 04:08:48;;;;;;;24.90;19.17;;;15.30;99.90;;;;;;5081671;28;20112;-51
2022/07/01 04:11:14;;;;;;;28.83;21.98;;;15.30;99.90;;;;;;5068351;28;20042;-47
2022/07/01 04:13:40;;;;;;;27.08;22.60;;;15.30;99.90;;;;;;5049465;28;20094;-52
2022/07/01 04:16:06;;;;;;;28.15;23.02;;;15.30;99.90;;;;;;5055522;28;20652;-46
2022/07/01 04:18:32;;;;;;;26.02;22.48;;;15.20;99.90;;;;;;5058692;28;20033;-47
2022/07/01 04:23:43;;;;;;;30.33;23.52;;;15.20;99.90;;;;;;5048459;28;20041;-48
2022/07/01 04:26:09;;;;;;;30.60;23.67;;;15.20;99.90;;;;;;5048724;28;20495;-46
2022/07/01 04:28:34;;;;;;;26.60;22.70;;;15.20;99.90;;;;;;5058145;28;20556;-46
2022/07/01 04:31:00;;;;;;;29.60;22.67;;;15.20;99.90;;;;;;5067251;28;20044;-47
2022/07/01 04:33:26;;;;;;;30.92;24.95;;;15.20;99.90;;;;;;5064232;28;20040;-50
2022/07/01 04:35:51;;;;;;;31.20;23.95;;;15.20;99.90;;;;;;5051758;28;20124;-46
2022/07/01 04:38:17;;;;;;;28.02;24.83;;;15.20;99.90;;;;;;5068098;28;20052;-50
2022/07/01 04:41:58;;;;;;;31.63;25.23;;;15.10;99.90;;;;;;5067094;28;20040;-45
2022/07/01 04:43:29;;;;;;;29.83;25.30;;;15.10;99.90;;;;;;5067751;28;20049;-47
2022/07/01 04:45:55;;;;;;;27.73;24.73;;;15.10;99.90;;;;;;5068526;28;20032;-53
2022/07/01 04:48:20;;;;;;;29.45;24.27;;;15.10;99.90;;;;;;5068972;28;20079;-46
2022/07/01 04:50:46;;;;;;;31.73;27.75;;;15.10;99.90;;;;;;5054061;28;20525;-46
2022/07/01 04:53:13;;;;;;;27.38;23.90;;;15.00;99.90;;;;;;5051225;28;20387;-46
2022/07/01 04:55:39;;;;;;;31.80;25.05;;;15.00;99.90;;;;;;5053001;28;20117;-48
2022/07/01 04:58:04;;;;;;;30.33;27.02;;;15.00;99.90;;;;;;5072520;28;20108;-46
2022/07/01 05:00:30;;;;;;;28.05;24.10;;;15.00;99.90;;;;;;5070784;28;20501;-48
2022/07/01 05:02:56;;;;;;;32.47;26.75;;;15.10;99.90;;;;;;5069196;28;20036;-49
2022/07/01 05:05:21;;;;;;;34.67;28.48;;;15.00;99.90;;;;;;5071728;28;20111;-49
2022/07/01 05:07:47;;;;;;;31.95;26.85;;;15.00;99.90;;;;;;5071646;28;20044;-46
2022/07/01 05:10:13;;;;;;;33.92;27.00;;;15.00;99.90;;;;;;5069896;28;20036;-46
2022/07/01 05:12:38;;;;;;;32.15;27.25;;;15.10;99.90;;;;;;5070000;28;20043;-48
2022/07/01 05:15:04;;;;;;;33.10;29.50;;;15.00;99.90;;;;;;5071227;28;20043;-48
2022/07/01 05:22:59;;;;;;;32.42;27.17;;;15.10;99.90;;;;;;5052172;28;20045;-50
2022/07/01 05:25:24;;;;;;;33.42;27.65;;;15.10;99.90;;;;;;5083570;28;20036;-48
2022/07/01 05:27:50;;;;;;;34.72;26.85;;;15.10;99.90;;;;;;5051501;28;20456;-46
2022/07/01 05:30:15;;;;;;;31.33;26.83;;;15.10;99.90;;;;;;5054913;28;20033;-46
2022/07/01 05:32:41;;;;;;;34.92;28.33;;;15.10;99.90;;;;;;5069482;28;20151;-52
2022/07/01 05:35:07;;;;;;;36.22;28.13;;;15.10;99.90;;;;;;5069641;28;20040;-46
2022/07/01 05:37:32;;;;;;;32.22;28.38;;;15.10;99.90;;;;;;5069603;28;20236;-46
2022/07/01 05:39:58;;;;;;;34.60;27.50;;;15.00;99.90;;;;;;5071326;28;20440;-46
2022/07/01 05:42:24;;;;;;;33.85;28.60;;;15.10;99.90;;;;;;5071459;28;20052;-46
2022/07/01 05:44:49;;;;;;;32.15;27.65;;;15.10;99.90;;;;;;5059277;28;20058;-49
2022/07/01 05:47:15;;;;;;;36.22;26.88;;;15.00;99.90;;;;;;5051258;28;20513;-46
2022/07/01 05:49:40;;;;;;;35.42;28.83;;;15.00;99.90;;;;;;5071778;28;20557;-46
2022/07/01 05:52:06;;;;;;;31.25;26.15;;;15.00;99.90;;;;;;5052322;28;20041;-47
2022/07/01 05:54:32;;;;;;;34.55;27.08;;;15.00;99.90;;;;;;5051732;28;20041;-50
2022/07/01 05:56:57;;;;;;;36.17;27.52;;;15.00;99.90;;;;;;5062722;28;20490;-46
2022/07/01 05:59:23;;;;;;;35.25;27.05;;;15.00;99.90;;;;;;5051184;28;20033;-48
2022/07/01 06:01:50;;;;;;;35.28;27.27;;;15.00;99.90;;;;;;5050917;28;20095;-47
2022/07/01 06:04:16;;;;;;;34.10;28.30;;;15.00;99.90;;;;;;5049757;28;20044;-48
2022/07/01 06:06:42;;;;;;;32.85;26.90;;;15.00;99.90;;;;;;5051468;28;20037;-49
2022/07/01 06:09:07;;;;;;;35.70;28.70;;;15.00;99.90;;;;;;5083138;28;20053;-46
2022/07/01 06:11:33;;;;;;;34.47;28.95;;;15.00;99.90;;;;;;5050640;28;20071;-46
2022/07/01 06:13:59;;;;;;;36.72;29.15;;;15.00;99.90;;;;;;5050127;28;20033;-49
2022/07/01 06:16:24;;;;;;;33.67;27.77;;;15.00;99.90;;;;;;5051530;28;20037;-48
2022/07/01 06:18:50;;;;;;;38.15;30.08;;;15.00;99.90;;;;;;5064524;28;20156;-49
2022/07/01 06:21:16;;;;;;;37.05;30.00;;;15.10;99.90;;;;;;5068665;28;20029;-46
2022/07/01 06:23:42;;;;;;;;;;;15.00;99.90;;;;;;5057295;28;20095;-46
2022/07/01 06:26:08;;;;;;;41.40;29.27;;;15.10;99.90;;;;;;5051304;28;20125;-45
2022/07/01 06:28:33;;;;;;;40.30;28.92;;;15.10;99.90;;;;;;5050675;28;20044;-50
2022/07/01 06:30:59;;;;;;;38.47;29.33;;;15.10;99.90;;;;;;5062701;28;20487;-48
2022/07/01 06:33:25;;;;;;;36.75;29.35;;;15.10;99.90;;;;;;5058894;28;20041;-47
2022/07/01 06:35:51;;;;;;;34.63;30.05;;;15.20;99.90;;;;;;5051365;28;20085;-45
2022/07/01 06:38:16;;;;;;;34.60;28.65;;;15.30;99.90;;;;;;5049109;28;20044;-47
2022/07/01 06:40:42;;;;;;;38.50;29.38;;;15.30;99.90;;;;;;5065095;28;20386;-46
2022/07/01 06:43:07;;;;;;;35.35;28.63;;;15.30;99.90;;;;;;5069320;28;20043;-46
2022/07/01 06:45:33;;;;;;;36.17;28.80;;;15.30;99.90;;;;;;5068478;28;20036;-49
2022/07/01 06:47:58;;;;;;;32.90;28.33;;;15.30;99.90;;;;;;5067950;28;20083;-48
2022/07/01 06:50:24;;;;;;;34.78;27.20;;;15.30;99.90;;;;;;5069580;28;20040;-51
2022/07/01 06:52:50;;;;;;;39.28;30.95;;;15.30;99.90;;;;;;5068686;28;20040;-47
2022/07/01 06:55:15;;;;;;;34.25;29.17;;;15.30;99.90;;;;;;5069669;28;20486;-49
2022/07/01 06:57:41;;;;;;;36.45;28.40;;;15.30;99.90;;;;;;5053027;28;20041;-46
2022/07/01 07:00:07;;;;;;;36.67;29.05;;;15.30;99.90;;;;;;5051096;28;20037;-50
2022/07/01 07:02:32;;;;;;;40.03;30.13;;;15.30;99.90;;;;;;5049372;28;20557;-51
2022/07/01 07:04:58;;;;;;;34.45;27.88;;;15.30;99.90;;;;;;5049271;28;20124;-46
2022/07/01 07:07:24;;;;;;;41.75;29.80;;;15.30;99.90;;;;;;5050538;28;20120;-48
2022/07/01 07:09:50;;;;;;;33.22;28.45;;;15.30;99.90;;;;;;5050044;28;20068;-50
2022/07/01 07:12:15;;;;;;;38.53;30.95;;;15.30;99.90;;;;;;5058410;28;20033;-48
2022/07/01 07:14:41;;;;;;;39.65;29.75;;;15.30;99.90;;;;;;5063851;28;20044;-46
2022/07/01 07:17:06;;;;;;;49.05;29.42;;;15.30;99.90;;;;;;5050282;28;20037;-50
2022/07/01 07:19:32;;;;;;;35.15;29.70;;;15.30;99.90;;;;;;5050902;28;20490;-51
2022/07/01 07:21:57;;;;;;;39.17;31.60;;;15.30;99.90;;;;;;5057388;28;20170;-50
2022/07/01 07:24:23;;;;;;;38.42;29.42;;;15.30;99.90;;;;;;5067112;28;20040;-48
2022/07/01 07:26:49;;;;;;;38.22;30.25;;;15.40;99.90;;;;;;5062429;28;20044;-48
2022/07/01 07:29:14;;;;;;;34.88;28.90;;;15.40;99.90;;;;;;5050439;28;20119;-51
2022/07/01 07:31:40;;;;;;;33.97;27.80;;;15.40;99.90;;;;;;5050281;28;20043;-50
2022/07/01 07:34:05;;;;;;;33.92;27.20;;;15.50;99.90;;;;;;5050901;28;20174;-47
2022/07/01 07:36:31;;;;;;;38.90;29.15;;;15.50;99.90;;;;;;5049360;28;20049;-49
2022/07/01 07:38:57;;;;;;;;;;;15.50;99.90;;;;;;5050189;28;20052;-50
2022/07/01 07:41:23;;;;;;;31.67;25.77;;;15.50;99.90;;;;;;5063964;28;19921;-51
2022/07/01 07:43:48;;;;;;;36.67;27.77;;;15.60;99.90;;;;;;5052498;28;20132;-47
2022/07/01 07:46:15;;;;;;;31.55;25.27;;;15.80;99.90;;;;;;5049458;28;20045;-48
2022/07/01 07:48:42;;;;;;;37.30;27.98;;;15.80;99.90;;;;;;5049593;28;20060;-46
2022/07/01 07:51:09;;;;;;;29.42;25.52;;;15.90;99.90;;;;;;5068162;28;20058;-46
2022/07/01 07:53:34;;;;;;;33.22;25.17;;;15.90;99.90;;;;;;5076502;28;20048;-45
2022/07/01 07:56:00;;;;;;;34.60;25.50;;;15.90;99.90;;;;;;5060718;28;20053;-57
2022/07/01 07:58:26;;;;;;;30.17;24.95;;;16.00;99.90;;;;;;5049634;28;20041;-46
2022/07/01 08:00:51;;;;;;;25.08;21.52;;;16.00;99.90;;;;;;5047651;28;20036;-51
2022/07/01 08:03:17;;;;;;;28.85;24.00;;;15.90;99.90;;;;;;5048414;28;20041;-47
2022/07/01 08:05:42;;;;;;;30.40;25.45;;;15.90;99.90;;;;;;5056818;28;20094;-49
2022/07/01 08:08:08;;;;;;;30.38;25.88;;;15.90;99.90;;;;;;5048824;28;20116;-48
2022/07/01 08:10:34;;;;;;;37.17;24.75;;;15.90;99.90;;;;;;5048892;28;20124;-49
2022/07/01 08:13:03;;;;;;;32.08;25.10;;;15.90;99.90;;;;;;5048279;28;20037;-46
2022/07/01 08:15:30;;;;;;;28.98;23.92;;;15.90;99.90;;;;;;5061574;28;20144;-48
2022/07/01 08:17:56;;;;;;;31.45;25.02;;;16.00;99.90;;;;;;5074584;28;20098;-47
2022/07/01 08:20:22;;;;;;;31.20;22.58;;;16.10;99.90;;;;;;5072221;28;20032;-50
2022/07/01 08:22:47;;;;;;;26.27;21.08;;;16.20;99.90;;;;;;5056331;28;20111;-46
2022/07/01 08:25:13;;;;;;;29.95;22.08;;;16.40;99.90;;;;;;5053612;28;20075;-48
2022/07/01 08:27:39;;;;;;;28.10;23.13;;;16.50;99.90;;;;;;5068959;28;20086;-51
2022/07/01 08:30:06;;;;;;;23.50;18.55;;;16.60;99.90;;;;;;5054363;28;20513;-48
2022/07/01 08:32:32;;;;;;;24.05;19.50;;;16.80;99.90;;;;;;5052344;28;20033;-50
2022/07/01 08:34:57;;;;;;;21.50;18.65;;;16.80;99.90;;;;;;5052254;28;20047;-48
2022/07/01 08:41:01;;;;;;;23.88;18.08;;;17.00;99.90;;;;;;5052689;28;20076;-51
2022/07/01 08:43:27;;;;;;;;;;;17.00;99.90;;;;;;5068772;28;20048;-48
2022/07/01 08:45:53;;;;;;;23.88;17.55;;;17.20;99.90;;;;;;5069929;28;20282;-48
2022/07/01 08:48:18;;;;;;;21.95;14.73;;;17.30;99.90;;;;;;5052381;28;20063;-47
2022/07/01 08:50:44;;;;;;;18.52;13.65;;;17.40;99.90;;;;;;5052354;28;20033;-50
2022/07/01 08:53:11;;;;;;;24.98;14.88;;;17.40;99.90;;;;;;5052107;28;20037;-47
2022/07/01 08:58:23;;;;;;;18.55;14.43;;;17.60;99.90;;;;;;5063709;28;20036;-47
2022/07/01 09:00:49;;;;;;;22.05;14.98;;;17.50;99.90;;;;;;5072340;28;20075;-48
2022/07/01 09:03:15;;;;;;;17.80;14.27;;;17.50;99.90;;;;;;5066135;28;20068;-51
2022/07/01 09:05:49;;;;;;;15.80;12.88;;;17.60;99.90;;;;;;5071647;28;20049;-47
2022/07/01 09:08:14;;;;;;;15.73;12.40;;;17.60;99.90;;;;;;5072168;28;20037;-47
2022/07/01 09:10:40;;;;;;;13.57;10.25;;;17.70;99.90;;;;;;5071246;28;20040;-48
2022/07/01 09:13:11;;;;;;;14.70;11.23;;;17.80;99.90;;;;;;5069139;28;20347;-51
2022/07/01 09:15:38;;;;;;;15.02;10.40;;;17.90;99.90;;;;;;5071882;28;20063;-47
2022/07/01 09:18:10;;;;;;;12.48;10.07;;;17.90;99.90;;;;;;5071394;28;20040;-48
2022/07/01 09:20:39;;;;;;;17.02;12.10;;;17.80;99.90;;;;;;5060502;28;20406;-51
2022/07/01 09:23:06;;;;;;;16.70;13.05;;;17.70;99.90;;;;;;5051079;28;20036;-49
2022/07/01 09:25:37;;;;;;;17.55;11.90;;;17.70;99.90;;;;;;5052675;28;20048;-50
2022/07/01 09:28:25;;;;;;;16.73;11.57;;;17.70;99.90;;;;;;5064107;28;20036;-48
2022/07/01 09:30:58;;;;;;;18.30;10.18;;;17.70;99.90;;;;;;5071042;28;20139;-48
2022/07/01 09:33:31;;;;;;;13.70;9.00;;;17.70;99.90;;;;;;5070785;28;20165;-52
2022/07/01 09:35:57;;;;;;;17.33;9.77;;;17.70;99.90;;;;;;5069344;28;20033;-49
2022/07/01 09:38:24;;;;;;;15.27;10.88;;;17.70;99.90;;;;;;5071726;28;20427;-53
2022/07/01 09:40:57;;;;;;;15.40;9.75;;;17.70;99.90;;;;;;5069268;28;20036;-51
2022/07/01 09:43:35;;;;;;;12.00;6.78;;;17.70;99.90;;;;;;5052242;28;20037;-47
2022/07/01 09:46:05;;;;;;;8.50;6.72;;;17.70;99.90;;;;;;5069703;28;20036;-49
2022/07/01 09:48:33;;;;;;;14.70;7.22;;;17.60;99.90;;;;;;5071911;28;20041;-49
2022/07/01 09:51:04;;;;;;;12.02;7.95;;;17.60;99.90;;;;;;5069359;28;20044;-51
2022/07/01 09:53:30;;;;;;;9.82;7.25;;;17.60;99.90;;;;;;5070328;28;20040;-49
2022/07/01 09:55:56;;;;;;;10.15;6.72;;;17.60;99.90;;;;;;5069757;28;20029;-48
2022/07/01 09:58:21;;;;;;;8.52;7.28;;;17.70;99.90;;;;;;5061025;28;20039;-48
2022/07/01 10:00:48;;;;;;;13.70;8.40;;;17.80;99.90;;;;;;5051043;28;20541;-48
2022/07/01 10:03:13;;;;;;;;;;;17.90;99.90;;;;;;5050622;28;20124;-49
2022/07/01 10:05:47;;;;;;;11.02;6.38;;;18.00;99.90;;;;;;5060011;28;20003;-51
2022/07/01 10:08:24;;;;;;;10.23;7.60;;;18.00;99.90;;;;;;5054423;28;20142;-48
2022/07/01 10:11:34;;;;;;;12.15;6.78;;;18.10;99.90;;;;;;5070577;28;20079;-48
2022/07/01 10:14:03;;;;;;;9.60;6.88;;;18.10;99.90;;;;;;5050973;28;20406;-50
2022/07/01 10:16:29;;;;;;;11.48;6.90;;;18.10;99.90;;;;;;5065401;28;20032;-48
2022/07/01 10:18:55;;;;;;;11.93;8.38;;;18.10;99.90;;;;;;5059870;28;20046;-48
2022/07/01 10:21:29;;;;;;;9.80;6.05;;;18.20;99.90;;;;;;5070140;28;20567;-48
2022/07/01 10:24:15;;;;;;;11.95;6.95;;;18.20;99.90;;;;;;5052575;28;20041;-47
2022/07/01 10:26:41;;;;;;;9.97;6.03;;;18.20;99.90;;;;;;5050071;28;20053;-50
2022/07/01 10:29:27;;;;;;;10.48;6.97;;;18.20;99.90;;;;;;5067979;28;20049;-48
2022/07/01 10:31:54;;;;;;;7.63;5.78;;;18.30;99.90;;;;;;5070167;28;20119;-48
2022/07/01 10:34:20;;;;;;;8.80;5.35;;;18.30;99.90;;;;;;5069770;28;20490;-48
2022/07/01 10:37:01;;;;;;;10.23;5.78;;;18.40;99.90;;;;;;5068141;28;20040;-49
2022/07/01 10:39:27;;;;;;;8.18;4.72;;;18.40;99.90;;;;;;5069762;28;20040;-48
2022/07/01 10:41:53;;;;;;;5.20;4.72;;;18.40;99.90;;;;;;5069345;28;20067;-50
2022/07/01 10:44:19;;;;;;;9.88;5.13;;;18.50;99.90;;;;;;5053340;28;20482;-49
2022/07/01 10:46:56;;;;;;;10.02;4.68;;;18.50;99.90;;;;;;5056505;28;20378;-52
2022/07/01 10:49:56;;;;;;;8.48;4.68;;;18.50;99.90;;;;;;5069436;28;20098;-53
2022/07/01 10:52:22;;;;;;;4.43;3.95;;;18.60;99.90;;;;;;5023729;28;20058;-50
2022/07/01 10:54:49;;;;;;;;;;;18.80;99.90;;;;;;5001382;28;20073;-52
2022/07/01 10:57:23;;;;;;;9.55;4.90;;;18.90;99.90;;;;;;5009387;28;19917;-48
2022/07/01 11:00:01;;;;;;;8.38;4.70;;;19.00;99.90;;;;;;5008615;28;20061;-50
2022/07/01 11:02:31;;;;;;;5.57;3.65;;;18.90;99.90;;;;;;5007361;28;20057;-49
2022/07/01 11:04:57;;;;;;;5.55;3.50;;;19.00;99.90;;;;;;5033627;28;20071;-48
2022/07/01 11:07:28;;;;;;;6.30;3.72;;;19.10;99.90;;;;;;5019952;28;20038;-49
2022/07/01 11:09:54;;;;;;;6.60;2.80;;;19.20;99.90;;;;;;5025998;28;20045;-48
2022/07/01 11:12:25;;;;;;;6.68;4.25;;;19.20;99.90;;;;;;5019636;28;20049;-52
2022/07/01 11:14:52;;;;;;;5.10;2.65;;;19.20;99.90;;;;;;5005935;28;20136;-49
2022/07/01 11:17:20;;;;;;;6.50;2.95;;;19.40;99.90;;;;;;5012709;28;20079;-49
2022/07/01 11:19:54;;;;;;;4.63;3.35;;;19.50;99.90;;;;;;5007160;28;20041;-50
2022/07/01 11:22:20;;;;;;;3.85;1.98;;;19.60;99.90;;;;;;5012694;28;20132;-50
2022/07/01 11:24:50;;;;;;;4.35;2.20;;;19.70;99.90;;;;;;5046305;28;20098;-49
2022/07/01 11:27:16;;;;;;;6.85;2.47;;;19.80;99.90;;;;;;5047700;28;20056;-49
2022/07/01 11:29:41;;;;;;;5.55;2.67;;;19.90;99.90;;;;;;5065576;28;20047;-49
2022/07/01 11:32:07;;;;;;;7.00;4.10;;;20.00;99.90;;;;;;5069277;28;20123;-49
2022/07/01 11:34:34;;;;;;;;;;;20.10;99.90;;;;;;5060525;28;20072;-50
2022/07/01 11:39:44;;;;;;;7.85;3.10;;;19.90;99.90;;;;;;5048903;28;20037;-49
2022/07/01 11:42:11;;;;;;;7.10;3.40;;;19.90;99.90;;;;;;5073473;28;20376;-51
2022/07/01 11:44:40;;;;;;;2.58;1.73;;;19.90;99.90;;;;;;5087915;28;20048;-49
2022/07/01 11:47:11;;;;;;;11.18;3.00;;;19.90;99.90;;;;;;5086244;28;20446;-49
2022/07/01 11:49:47;;;;;;;7.00;3.08;;;19.90;99.90;;;;;;5069352;28;20120;-53
2022/07/01 11:52:13;;;;;;;5.53;2.58;;;19.90;99.90;;;;;;5058235;28;20056;-49
2022/07/01 11:54:40;;;;;;;6.03;2.03;;;19.90;99.90;;;;;;5048988;28;20064;-49
2022/07/01 11:57:14;;;;;;;4.90;2.00;;;19.90;99.90;;;;;;5049881;28;20037;-49
2022/07/01 11:59:40;;;;;;;4.03;1.70;;;19.90;99.20;;;;;;5064529;28;20170;-49
2022/07/01 12:02:07;;;;;;;5.15;1.42;;;19.80;99.30;;;;;;5054359;28;20037;-49
2022/07/01 12:04:33;;;;;;;4.50;1.73;;;19.80;98.70;;;;;;5058185;28;20433;-51
2022/07/01 12:06:59;;;;;;;5.43;1.80;;;19.70;99.30;;;;;;5072887;28;20454;-49
2022/07/01 12:09:26;;;;;;;11.55;2.85;;;19.70;99.70;;;;;;5073378;28;20040;-49
2022/07/01 12:11:52;;;;;;;5.97;2.72;;;19.70;99.20;;;;;;5070541;28;20066;-49
2022/07/01 12:14:30;;;;;;;3.22;1.50;;;19.60;99.20;;;;;;5053313;28;20112;-50
2022/07/01 12:16:59;;;;;;;7.65;1.88;;;19.60;99.00;;;;;;5054010;28;20036;-49
2022/07/01 12:19:39;;;;;;;4.10;1.35;;;19.50;99.20;;;;;;5052797;28;20048;-49
2022/07/01 12:22:15;;;;;;;3.75;1.30;;;19.40;99.50;;;;;;5060630;28;20032;-49
2022/07/01 12:24:42;;;;;;;4.20;1.10;;;19.60;99.90;;;;;;5070527;28;20060;-51
2022/07/01 12:27:09;;;;;;;4.53;0.60;;;19.70;99.90;;;;;;5058619;28;20430;-49
2022/07/01 12:29:46;;;;;;;2.70;0.80;;;19.80;99.30;;;;;;5059148;28;20130;-49
2022/07/01 12:32:14;;;;;;;2.10;0.60;;;19.80;98.70;;;;;;5080687;28;20412;-50
2022/07/01 12:34:48;;;;;;;4.20;1.13;;;19.80;99.20;;;;;;5065160;28;20401;-50
2022/07/01 12:37:19;;;;;;;4.50;0.60;;;19.80;99.40;;;;;;5084002;28;20080;-48
2022/07/01 12:39:53;;;;;;;2.85;0.57;;;20.00;99.10;;;;;;5057225;28;21664;-48
2022/07/01 12:42:20;;;;;;;2.17;0.60;;;20.10;98.70;;;;;;5068125;28;20033;-50
2022/07/01 12:44:46;;;;;;;3.03;0.60;;;20.20;98.30;;;;;;5052786;28;20109;-49
2022/07/01 12:47:20;;;;;;;5.07;0.68;;;20.20;98.20;;;;;;5069616;28;20061;-51
2022/07/01 12:49:45;;;;;;;2.08;0.40;;;20.10;97.50;;;;;;5065521;28;20040;-48
2022/07/01 12:52:25;;;;;;;3.22;0.85;;;20.10;98.10;;;;;;5057061;28;20045;-48
2022/07/01 12:54:51;;;;;;;4.22;0.77;;;20.10;97.60;;;;;;5067858;28;20044;-51
2022/07/01 12:57:16;;;;;;;4.95;0.70;;;20.20;97.80;;;;;;5071862;28;20039;-49
2022/07/01 12:59:42;;;;;;;;;;;20.20;97.60;;;;;;5071189;28;20043;-49